createdAt,value
2018-07-14T00:00:18.464Z,68.02
2018-07-14T00:02:48.122Z,68.30
2018-07-14T00:05:17.868Z,68.37
2018-07-14T00:07:48.068Z,69.06
2018-07-14T00:10:19.304Z,69.18
2018-07-14T00:15:51.050Z,69.59
2018-07-14T00:18:21.787Z,69.83
2018-07-14T00:21:10.277Z,69.66
2018-07-14T00:23:40.388Z,69.41
2018-07-14T00:26:10.850Z,69.80
2018-07-14T00:28:40.638Z,69.65
2018-07-14T00:31:12.623Z,69.58
2018-07-14T00:33:42.216Z,69.48
2018-07-14T00:36:11.841Z,69.97
2018-07-14T00:38:41.661Z,69.68
2018-07-14T00:44:20.595Z,70.63
2018-07-14T00:46:50.516Z,70.86
2018-07-14T00:49:20.132Z,71.10
2018-07-14T00:51:49.821Z,70.82
2018-07-14T00:54:19.968Z,70.92
2018-07-14T00:56:49.828Z,71.39
2018-07-14T00:59:20.214Z,71.25
2018-07-14T01:01:50.357Z,71.47
2018-07-14T01:04:19.993Z,71.63
2018-07-14T01:06:50.276Z,71.68
2018-07-14T01:09:40.109Z,71.95
2018-07-14T01:12:10.991Z,71.93
2018-07-14T01:14:41.489Z,71.91
2018-07-14T01:17:11.185Z,72.00
2018-07-14T01:19:42.200Z,71.54
2018-07-14T01:22:12.337Z,71.91
2018-07-14T01:24:47.735Z,71.14
2018-07-14T01:27:17.533Z,71.25
2018-07-14T01:29:47.142Z,71.45
2018-07-14T01:32:17.815Z,71.78
2018-07-14T01:34:47.635Z,71.68
2018-07-14T01:37:17.069Z,71.48
2018-07-14T01:39:46.553Z,71.67
2018-07-14T01:42:15.995Z,71.25
2018-07-14T01:44:45.445Z,71.52
2018-07-14T01:47:14.894Z,71.63
2018-07-14T01:50:05.042Z,71.74
2018-07-14T01:53:23.125Z,71.32
2018-07-14T01:55:52.725Z,71.77
2018-07-14T01:58:39.301Z,72.01
2018-07-14T02:01:09.636Z,71.77
2018-07-14T02:03:39.341Z,72.23
2018-07-14T02:06:13.806Z,71.86
2018-07-14T02:08:43.460Z,72.20
2018-07-14T02:11:13.112Z,72.34
2018-07-14T02:13:42.648Z,72.08
2018-07-14T02:16:12.510Z,72.55
2018-07-14T02:18:41.921Z,72.25
2018-07-14T02:21:11.421Z,72.88
2018-07-14T02:23:40.906Z,73.25
2018-07-14T02:26:19.714Z,73.23
2018-07-14T02:28:49.386Z,73.64
2018-07-14T02:32:35.565Z,73.28
2018-07-14T02:35:05.176Z,73.67
2018-07-14T02:37:34.805Z,73.12
2018-07-14T02:40:09.745Z,73.37
2018-07-14T02:42:39.324Z,73.36
2018-07-14T02:50:40.311Z,73.33
2018-07-14T02:53:10.735Z,72.85
2018-07-14T02:55:40.331Z,72.50
2018-07-14T02:58:10.155Z,72.17
2018-07-14T03:00:40.589Z,71.93
2018-07-14T03:03:16.693Z,72.87
2018-07-14T03:05:46.142Z,72.36
2018-07-14T03:08:15.644Z,72.73
2018-07-14T03:10:45.215Z,72.81
2018-07-14T03:13:20.510Z,72.73
2018-07-14T03:15:50.843Z,73.32
2018-07-14T03:18:20.635Z,73.18
2018-07-14T03:20:50.298Z,72.93
2018-07-14T03:29:25.503Z,73.27
2018-07-14T03:31:55.159Z,73.02
2018-07-14T03:34:24.737Z,73.34
2018-07-14T03:39:47.466Z,73.88
2018-07-14T03:45:24.370Z,74.54
2018-07-14T03:47:53.840Z,74.33
2018-07-14T03:50:23.380Z,74.58
2018-07-14T03:52:53.024Z,74.62
2018-07-14T03:58:16.200Z,74.58
2018-07-14T04:00:45.862Z,74.46
2018-07-14T04:03:15.509Z,74.51
2018-07-14T04:05:45.261Z,74.60
2018-07-14T04:08:14.858Z,74.43
2018-07-14T04:10:44.567Z,75.09
2018-07-14T04:13:14.573Z,74.83
2018-07-14T04:15:44.324Z,75.53
2018-07-14T04:18:13.937Z,75.17
2018-07-14T04:20:43.585Z,75.26
2018-07-14T04:23:20.803Z,75.24
2018-07-14T04:25:50.336Z,74.67
2018-07-14T04:28:19.951Z,74.59
2018-07-14T04:30:49.355Z,75.11
2018-07-14T04:33:24.174Z,74.64
2018-07-14T04:35:53.658Z,74.99
2018-07-14T04:38:23.121Z,74.82
2018-07-14T04:40:52.625Z,74.61
2018-07-14T04:43:38.488Z,74.42
2018-07-14T04:46:08.767Z,74.64
2018-07-14T04:51:44.028Z,74.23
2018-07-14T04:54:14.424Z,73.18
2018-07-14T04:56:43.998Z,73.25
2018-07-14T04:59:27.231Z,73.25
2018-07-14T05:01:58.950Z,73.43
2018-07-14T05:04:30.771Z,73.55
2018-07-14T05:07:01.701Z,73.17
2018-07-14T05:09:32.951Z,73.27
2018-07-14T05:12:02.906Z,73.93
2018-07-14T05:14:33.818Z,74.12
2018-07-14T05:17:03.473Z,73.75
2018-07-14T05:19:39.884Z,73.68
2018-07-14T05:22:10.060Z,73.55
2018-07-14T05:24:45.392Z,73.88
2018-07-14T05:27:16.533Z,73.63
2018-07-14T05:29:46.365Z,73.13
2018-07-14T05:32:16.082Z,72.65
2018-07-14T05:34:45.754Z,72.60
2018-07-14T05:37:15.711Z,72.82
2018-07-14T05:39:45.761Z,72.30
2018-07-14T05:42:15.723Z,72.04
2018-07-14T05:44:45.225Z,71.54
2018-07-14T05:47:15.017Z,71.39
2018-07-14T05:49:44.775Z,70.54
2018-07-14T05:52:16.026Z,70.23
2018-07-14T05:54:55.828Z,68.77
2018-07-14T05:57:26.748Z,69.30
2018-07-14T05:59:57.369Z,68.34
2018-07-14T06:02:26.877Z,67.38
2018-07-14T06:04:56.343Z,67.67
2018-07-14T06:07:26.492Z,66.53
2018-07-14T06:12:37.861Z,64.56
2018-07-14T06:18:00.049Z,64.15
2018-07-14T06:20:29.702Z,63.88
2018-07-14T06:22:59.706Z,62.89
2018-07-14T06:25:29.431Z,62.57
2018-07-14T06:27:59.001Z,61.15
2018-07-14T06:30:28.641Z,60.60
2018-07-14T06:32:58.538Z,60.47
2018-07-14T06:35:28.094Z,60.10
2018-07-14T06:37:58.275Z,60.16
2018-07-14T06:40:27.740Z,59.40
2018-07-14T06:42:57.238Z,59.23
2018-07-14T06:45:26.667Z,58.99
2018-07-14T06:47:57.682Z,58.47
2018-07-14T06:53:02.438Z,57.24
2018-07-14T07:01:19.611Z,57.28
2018-07-14T07:03:49.613Z,56.80
2018-07-14T07:06:19.971Z,57.07
2018-07-14T07:08:49.774Z,57.02
2018-07-14T07:11:20.879Z,56.85
2018-07-14T07:13:50.781Z,56.73
2018-07-14T07:16:20.877Z,55.75
2018-07-14T07:18:51.093Z,55.06
2018-07-14T07:21:20.942Z,53.89
2018-07-14T07:23:50.533Z,54.37
2018-07-14T07:26:22.648Z,54.19
2018-07-14T07:28:52.975Z,54.15
2018-07-14T07:31:22.409Z,53.94
2018-07-14T07:33:52.684Z,53.35
2018-07-14T07:36:22.986Z,52.67
2018-07-14T07:38:52.568Z,51.86
2018-07-14T07:41:22.334Z,51.38
2018-07-14T07:43:51.936Z,50.08
2018-07-14T07:46:23.075Z,48.72
2018-07-14T07:48:52.613Z,49.81
2018-07-14T07:51:22.552Z,49.03
2018-07-14T07:53:52.215Z,48.71
2018-07-14T07:56:26.096Z,47.72
2018-07-14T07:58:55.809Z,47.63
2018-07-14T08:01:30.129Z,46.63
2018-07-14T08:03:59.643Z,47.34
2018-07-14T08:06:30.695Z,47.03
2018-07-14T08:09:00.181Z,47.02
2018-07-14T08:11:29.785Z,46.79
2018-07-14T08:13:59.355Z,46.14
2018-07-14T08:16:35.793Z,46.20
2018-07-14T08:19:05.340Z,44.33
2018-07-14T08:21:34.956Z,45.36
2018-07-14T08:24:04.480Z,45.36
2018-07-14T08:26:53.302Z,44.67
2018-07-14T08:29:22.820Z,43.15
2018-07-14T08:31:53.068Z,43.36
2018-07-14T08:34:23.229Z,43.14
2018-07-14T08:37:06.317Z,42.63
2018-07-14T08:39:35.963Z,43.13
2018-07-14T08:42:05.632Z,41.38
2018-07-14T08:44:35.103Z,39.22
2018-07-14T08:47:23.733Z,37.69
2018-07-14T08:49:53.355Z,34.94
2018-07-14T08:52:23.073Z,34.69
2018-07-14T08:54:52.508Z,33.13
2018-07-14T08:57:21.953Z,32.92
2018-07-14T08:59:51.638Z,31.92
2018-07-14T09:02:33.263Z,31.70
2018-07-14T09:05:02.754Z,31.61
2018-07-14T09:07:32.357Z,31.82
2018-07-14T09:10:01.975Z,30.25
2018-07-14T09:12:31.990Z,31.20
2018-07-14T09:15:01.600Z,28.89
2018-07-14T09:17:31.125Z,31.17
2018-07-14T09:20:00.719Z,28.62
2018-07-14T09:22:30.403Z,29.74
2018-07-14T09:24:59.987Z,28.81
2018-07-14T09:27:51.151Z,31.01
2018-07-14T09:30:20.731Z,31.29
2018-07-14T09:32:50.190Z,30.29
2018-07-14T09:35:19.822Z,29.46
2018-07-14T09:37:53.377Z,29.18
2018-07-14T09:40:22.886Z,27.61
2018-07-14T09:42:52.563Z,27.43
2018-07-14T09:45:24.698Z,27.41
2018-07-14T09:47:54.159Z,25.66
2018-07-14T09:50:23.633Z,25.59
2018-07-14T09:52:53.114Z,26.85
2018-07-14T09:55:22.749Z,26.61
2018-07-14T09:57:52.319Z,26.45
2018-07-14T10:03:15.420Z,24.09
2018-07-14T10:05:44.960Z,25.77
2018-07-14T10:08:14.988Z,26.87
2018-07-14T10:10:44.662Z,25.07
2018-07-14T10:13:30.372Z,26.10
2018-07-14T10:16:00.164Z,23.75
2018-07-14T10:18:29.602Z,25.82
2018-07-14T10:20:59.193Z,26.36
2018-07-14T10:26:30.052Z,24.23
2018-07-14T10:29:00.280Z,24.14
2018-07-14T10:31:30.066Z,23.89
2018-07-14T10:33:59.613Z,24.99
2018-07-14T10:36:36.583Z,25.92
2018-07-14T10:39:07.487Z,26.06
2018-07-14T10:41:37.039Z,27.19
2018-07-14T10:44:06.681Z,27.28
2018-07-14T10:46:36.696Z,28.15
2018-07-14T10:49:06.353Z,26.16
2018-07-14T10:51:41.430Z,26.28
2018-07-14T10:54:12.383Z,26.39
2018-07-14T10:56:41.933Z,27.51
2018-07-14T10:59:11.535Z,25.56
2018-07-14T11:01:41.131Z,26.45
2018-07-14T11:04:12.052Z,25.23
2018-07-14T11:24:19.403Z,23.83
2018-07-14T11:26:49.273Z,24.92
2018-07-14T11:29:18.917Z,25.64
2018-07-14T11:31:48.427Z,24.95
2018-07-14T11:34:22.487Z,24.42
2018-07-14T11:36:52.284Z,24.61
2018-07-14T11:39:22.474Z,24.75
2018-07-14T11:41:52.578Z,26.00
2018-07-14T11:44:34.575Z,25.65
2018-07-14T11:47:04.219Z,24.60
2018-07-14T11:49:33.841Z,22.70
2018-07-14T11:52:03.514Z,22.84
2018-07-14T11:54:43.677Z,22.34
2018-07-14T11:57:13.456Z,21.74
2018-07-14T11:59:43.053Z,21.74
2018-07-14T12:02:12.587Z,22.43
2018-07-14T12:04:43.798Z,25.77
2018-07-14T12:07:13.897Z,26.94
2018-07-14T12:09:43.493Z,26.81
2018-07-14T12:12:13.257Z,29.16
2018-07-14T12:14:42.873Z,28.03
2018-07-14T12:17:12.416Z,27.51
2018-07-14T12:19:43.533Z,28.82
2018-07-14T12:22:13.050Z,24.10
2018-07-14T12:24:42.728Z,24.03
2018-07-14T12:27:12.355Z,24.39
2018-07-14T12:29:41.917Z,24.87
2018-07-14T12:32:11.485Z,25.99
2018-07-14T12:34:43.014Z,26.57
2018-07-14T12:37:12.566Z,29.08
2018-07-14T12:39:42.132Z,29.25
2018-07-14T12:42:11.599Z,30.46
2018-07-14T12:44:41.583Z,30.47
2018-07-14T12:47:16.294Z,31.62
2018-07-14T12:49:46.018Z,32.50
2018-07-14T12:52:17.377Z,31.32
2018-07-14T12:54:48.033Z,31.38
2018-07-14T12:57:19.353Z,31.47
2018-07-14T12:59:49.088Z,31.16
2018-07-14T13:02:18.930Z,32.01
2018-07-14T13:07:52.281Z,31.29
2018-07-14T13:10:29.209Z,32.01
2018-07-14T13:12:58.858Z,31.84
2018-07-14T13:15:28.605Z,32.50
2018-07-14T13:17:58.402Z,31.79
2018-07-14T13:20:30.631Z,32.49
2018-07-14T13:23:00.459Z,31.87
2018-07-14T13:25:30.209Z,29.98
2018-07-14T13:27:59.883Z,30.81
2018-07-14T13:30:29.717Z,31.62
2018-07-14T13:32:59.351Z,30.23
2018-07-14T13:35:36.505Z,30.99
2018-07-14T13:38:06.232Z,31.10
2018-07-14T13:40:36.001Z,29.47
2018-07-14T13:43:05.539Z,30.78
2018-07-14T13:45:42.268Z,30.25
2018-07-14T13:48:12.000Z,31.22
2018-07-14T13:50:41.752Z,33.79
2018-07-14T13:53:11.269Z,33.47
2018-07-14T13:55:40.849Z,32.93
2018-07-14T13:58:24.514Z,32.57
2018-07-14T14:00:54.720Z,31.59
2018-07-14T14:03:24.260Z,31.57
2018-07-14T14:06:21.522Z,32.11
2018-07-14T14:08:51.113Z,31.59
2018-07-14T14:11:20.687Z,32.27
2018-07-14T14:13:50.695Z,33.75
2018-07-14T14:16:20.173Z,32.24
2018-07-14T14:18:49.880Z,29.40
2018-07-14T14:21:22.288Z,27.68
2018-07-14T14:23:51.821Z,25.91
2018-07-14T14:26:21.533Z,25.58
2018-07-14T14:28:51.103Z,27.04
2018-07-14T14:31:24.824Z,25.95
2018-07-14T14:33:54.367Z,24.14
2018-07-14T14:36:23.930Z,20.73
2018-07-14T14:38:53.517Z,19.75
2018-07-14T14:41:37.246Z,20.22
2018-07-14T14:44:06.850Z,20.95
2018-07-14T14:46:36.757Z,22.50
2018-07-14T14:49:06.266Z,23.56
2018-07-14T14:51:36.597Z,25.13
2018-07-14T14:54:06.402Z,23.07
2018-07-14T14:56:36.238Z,24.01
2018-07-14T14:59:06.026Z,25.51
2018-07-14T15:01:36.294Z,27.03
2018-07-14T15:04:06.166Z,26.83
2018-07-14T15:06:36.386Z,28.45
2018-07-14T15:09:06.671Z,28.90
2018-07-14T15:11:36.457Z,28.98
2018-07-14T15:14:08.384Z,27.86
2018-07-14T15:16:38.182Z,24.83
2018-07-14T15:19:07.931Z,22.49
2018-07-14T15:21:38.945Z,23.93
2018-07-14T15:24:08.554Z,25.30
2018-07-14T15:26:38.288Z,26.87
2018-07-14T15:29:09.309Z,26.55
2018-07-14T15:31:39.114Z,26.93
2018-07-14T15:34:08.609Z,28.95
2018-07-14T15:36:38.608Z,29.56
2018-07-14T15:39:08.793Z,29.09
2018-07-14T15:41:38.883Z,26.49
2018-07-14T15:44:09.971Z,23.50
2018-07-14T15:46:40.674Z,22.78
2018-07-14T15:49:10.341Z,22.64
2018-07-14T15:51:39.990Z,25.06
2018-07-14T15:54:10.090Z,25.94
2018-07-14T15:56:40.020Z,27.40
2018-07-14T16:02:08.762Z,28.71
2018-07-14T16:04:38.627Z,28.08
2018-07-14T16:07:08.385Z,27.66
2018-07-14T16:09:38.780Z,26.80
2018-07-14T16:12:14.505Z,27.14
2018-07-14T16:14:44.100Z,28.61
2018-07-14T16:17:13.637Z,28.24
2018-07-14T16:19:43.229Z,27.61
2018-07-14T16:22:17.489Z,28.16
2018-07-14T16:24:47.039Z,29.25
2018-07-14T16:27:16.723Z,30.07
2018-07-14T16:29:47.144Z,31.72
2018-07-14T16:32:17.281Z,31.42
2018-07-14T16:34:46.861Z,31.52
2018-07-14T16:37:16.337Z,32.82
2018-07-14T16:39:45.927Z,33.37
2018-07-14T16:42:15.581Z,33.59
2018-07-14T16:44:52.330Z,34.00
2018-07-14T16:47:22.931Z,34.30
2018-07-14T16:49:53.449Z,34.55
2018-07-14T16:52:23.071Z,34.28
2018-07-14T16:54:54.244Z,34.96
2018-07-14T16:57:23.725Z,34.66
2018-07-14T16:59:53.251Z,34.21
2018-07-14T17:02:22.937Z,33.90
2018-07-14T17:04:53.739Z,34.08
2018-07-14T17:07:23.803Z,34.06
2018-07-14T17:09:54.182Z,35.40
2018-07-14T17:12:23.679Z,35.76
2018-07-14T17:14:53.514Z,35.65
2018-07-14T17:17:23.223Z,36.00
2018-07-14T17:22:50.093Z,37.78
2018-07-14T17:25:19.895Z,38.86
2018-07-14T17:27:49.489Z,38.85
2018-07-14T17:30:19.277Z,39.39
2018-07-14T17:32:51.255Z,38.76
2018-07-14T17:35:21.077Z,38.91
2018-07-14T17:37:50.589Z,39.45
2018-07-14T17:40:20.220Z,39.95
2018-07-14T17:42:50.166Z,40.27
2018-07-14T17:45:20.323Z,39.70
2018-07-14T17:51:03.331Z,40.23
2018-07-14T17:53:33.183Z,41.15
2018-07-14T17:56:03.000Z,42.28
2018-07-14T17:58:33.365Z,43.69
2018-07-14T18:01:05.698Z,41.53
2018-07-14T18:03:35.732Z,40.95
2018-07-14T18:06:05.617Z,42.44
2018-07-14T18:08:35.564Z,43.06
2018-07-14T18:11:05.983Z,43.47
2018-07-14T18:13:35.686Z,43.26
2018-07-14T18:16:24.399Z,44.00
2018-07-14T18:18:54.157Z,44.37
2018-07-14T18:21:23.813Z,44.23
2018-07-14T18:23:53.469Z,44.65
2018-07-14T18:26:23.130Z,44.32
2018-07-14T18:28:52.898Z,44.06
2018-07-14T18:31:27.589Z,44.84
2018-07-14T18:33:57.328Z,45.01
2018-07-14T18:36:26.917Z,45.47
2018-07-14T18:38:56.644Z,45.89
2018-07-14T18:41:26.728Z,46.12
2018-07-14T18:43:56.810Z,46.63
2018-07-14T18:46:26.556Z,46.69
2018-07-14T18:48:56.090Z,46.96
2018-07-14T18:51:25.651Z,47.87
2018-07-14T18:53:57.828Z,48.49
2018-07-14T18:56:27.968Z,48.39
2018-07-14T18:59:01.558Z,49.44
2018-07-14T19:01:31.277Z,49.74
2018-07-14T19:04:00.895Z,48.75
2018-07-14T19:06:30.906Z,49.28
2018-07-14T19:12:07.170Z,49.71
2018-07-14T19:14:36.637Z,50.27
2018-07-14T19:17:06.296Z,50.93
2018-07-14T19:19:36.818Z,51.30
2018-07-14T19:22:07.851Z,51.24
2018-07-14T19:24:37.406Z,51.18
2018-07-14T19:27:07.857Z,51.76
2018-07-14T19:29:38.057Z,52.28
2018-07-14T19:32:08.453Z,52.02
2018-07-14T19:34:38.154Z,51.01
2018-07-14T19:37:07.881Z,51.89
2018-07-14T19:39:37.560Z,51.56
2018-07-14T19:42:08.090Z,52.62
2018-07-14T19:47:31.838Z,52.96
2018-07-14T19:50:01.563Z,53.25
2018-07-14T19:52:31.343Z,53.59
2018-07-14T19:55:02.113Z,53.66
2018-07-14T19:57:31.783Z,54.26
2018-07-14T20:00:01.635Z,54.37
2018-07-14T20:02:33.090Z,55.13
2018-07-14T20:05:03.677Z,56.05
2018-07-14T20:07:33.648Z,56.26
2018-07-14T20:10:03.791Z,56.49
2018-07-14T20:12:33.530Z,56.37
2018-07-14T20:15:03.436Z,56.59
2018-07-14T20:17:39.871Z,56.79
2018-07-14T20:20:10.609Z,56.86
2018-07-14T20:22:40.650Z,57.85
2018-07-14T20:25:10.351Z,58.11
2018-07-14T20:27:42.613Z,58.55
2018-07-14T20:30:12.435Z,58.60
2018-07-14T20:32:42.314Z,59.47
2018-07-14T20:35:11.879Z,59.47
2018-07-14T20:37:55.294Z,60.47
2018-07-14T20:40:25.001Z,60.87
2018-07-14T20:42:54.791Z,61.50
2018-07-14T20:45:29.265Z,61.69
2018-07-14T20:47:59.160Z,61.60
2018-07-14T20:50:28.839Z,62.32
2018-07-14T20:52:58.457Z,62.29
2018-07-14T20:55:36.951Z,62.04
2018-07-14T20:58:06.849Z,62.34
2018-07-14T21:00:36.537Z,61.85
2018-07-14T21:03:06.375Z,61.90
2018-07-14T21:05:35.988Z,61.86
2018-07-14T21:08:07.070Z,62.05
2018-07-14T21:10:36.993Z,62.45
2018-07-14T21:13:06.676Z,62.58
2018-07-14T21:15:36.533Z,62.43
2018-07-14T21:18:06.187Z,62.65
2018-07-14T21:20:37.105Z,61.71
2018-07-14T21:23:06.670Z,62.36
2018-07-14T21:25:36.417Z,63.08
2018-07-14T21:28:05.935Z,62.90
2018-07-14T21:30:37.961Z,63.24
2018-07-14T21:33:07.902Z,63.72
2018-07-14T21:35:37.459Z,63.76
2018-07-14T21:38:07.672Z,63.83
2018-07-14T21:40:37.962Z,63.91
2018-07-14T21:43:07.669Z,64.88
2018-07-14T21:45:38.563Z,64.49
2018-07-14T21:48:08.729Z,65.13
2018-07-14T21:50:38.637Z,65.53
2018-07-14T21:53:08.400Z,65.49
2018-07-14T21:55:38.117Z,65.99
2018-07-14T21:58:08.433Z,66.00
2018-07-14T22:00:43.501Z,66.05
2018-07-14T22:03:13.034Z,66.59
2018-07-14T22:05:42.659Z,66.20
2018-07-14T22:08:12.330Z,66.84
2018-07-14T22:10:42.055Z,67.00
2018-07-14T22:13:12.121Z,66.87
2018-07-14T22:15:44.498Z,67.07
2018-07-14T22:18:14.049Z,67.47
2018-07-14T22:20:43.778Z,67.89
2018-07-14T22:23:13.519Z,67.86
2018-07-14T22:25:46.052Z,67.60
2018-07-14T22:28:15.719Z,68.44
2018-07-14T22:30:45.428Z,68.59
2018-07-14T22:33:15.576Z,68.94
2018-07-14T22:35:45.837Z,68.34
2018-07-14T22:38:15.415Z,68.91
2018-07-14T22:40:46.913Z,69.62
2018-07-14T22:43:16.329Z,69.79
2018-07-14T22:45:46.431Z,70.24
2018-07-14T22:48:16.114Z,69.71
2018-07-14T22:50:46.267Z,70.10
2018-07-14T22:53:53.202Z,68.81
2018-07-14T22:56:22.989Z,67.72
2018-07-14T22:58:54.234Z,67.69
2018-07-14T23:01:24.417Z,68.58
2018-07-14T23:03:54.098Z,69.02
2018-07-14T23:06:24.114Z,68.75
2018-07-14T23:09:02.109Z,69.82
2018-07-14T23:11:32.755Z,70.06
2018-07-14T23:14:03.315Z,70.40
2018-07-14T23:16:33.299Z,70.83
2018-07-14T23:19:07.209Z,70.44
2018-07-14T23:21:36.763Z,70.24
2018-07-14T23:30:12.729Z,70.82
2018-07-14T23:32:42.591Z,71.82
2018-07-14T23:35:16.961Z,71.77
2018-07-14T23:37:46.725Z,71.57
2018-07-14T23:40:16.845Z,71.81
2018-07-14T23:42:46.501Z,72.33
2018-07-14T23:45:16.060Z,72.66
2018-07-14T23:47:45.649Z,72.44
2018-07-14T23:50:15.607Z,72.56
2018-07-14T23:52:45.369Z,73.09
2018-07-14T23:55:14.963Z,73.34
2018-07-14T23:57:44.389Z,73.11
